Time;durP1;ratioP1;P1;durP2;ratioP2;P2;SDS_P1;SDS_P2;PMS_P1;PMS_P2;Temp;Humidity;BMP_temperature;BMP_pressure;BME280_temperature;BME280_humidity;BME280_pressure;Samples;Min_cycle;Max_cycle;Signal;HPM_P1;HPM_P2
2021/11/11 00:00:12;;;;;;;147.93;60.95;;;;;;;;;;5099487;28;20124;-66
2021/11/11 00:02:38;;;;;;;129.05;58.97;;;;;;;;;;5118424;28;20063;-66
2021/11/11 00:05:05;;;;;;;133.93;62.53;;;;;;;;;;5102420;28;20055;-66
2021/11/11 00:07:32;;;;;;;140.90;60.90;;;;;;;;;;5119970;28;20135;-66
2021/11/11 00:09:58;;;;;;;132.45;61.53;;;;;;;;;;5122689;28;20623;-66
2021/11/11 00:12:31;;;;;;;156.02;66.13;;;;;;;;;;5090419;28;20126;-66
2021/11/11 00:14:58;;;;;;;144.27;62.35;;;;;;;;;;5124909;28;20051;-66
2021/11/11 00:17:24;;;;;;;158.10;62.40;;;;;;;;;;5102599;28;20083;-66
2021/11/11 00:19:51;;;;;;;147.45;63.00;;;;;;;;;;5121835;28;20039;-66
2021/11/11 00:22:17;;;;;;;148.00;62.45;;;;;;;;;;5102023;28;20047;-66
2021/11/11 00:24:43;;;;;;;138.23;61.40;;;;;;;;;;5095266;28;20044;-66
2021/11/11 00:27:10;;;;;;;168.95;66.40;;;;;;;;;;5116774;28;20057;-66
2021/11/11 00:29:36;;;;;;;148.15;62.20;;;;;;;;;;5125558;28;20052;-66
2021/11/11 00:32:04;;;;;;;148.23;63.92;;;;;;;;;;5119070;28;20131;-66
2021/11/11 00:34:30;;;;;;;157.45;66.65;;;;;;;;;;5099807;28;20090;-66
2021/11/11 00:36:56;;;;;;;148.05;60.65;;;;;;;;;;5107361;28;20453;-66
2021/11/11 00:39:23;;;;;;;153.80;62.67;;;;;;;;;;5125583;28;20050;-66
2021/11/11 00:41:49;;;;;;;156.00;63.58;;;;;;;;;;5091270;28;20450;-66
2021/11/11 00:44:16;;;;;;;165.18;63.33;;;;;;;;;;5113994;28;20143;-66
2021/11/11 00:46:42;;;;;;;158.68;65.72;;;;;;;;;;5125400;28;20083;-66
2021/11/11 00:49:08;;;;;;;135.65;59.63;;;;;;;;;;5107125;28;20048;-66
2021/11/11 00:51:35;;;;;;;146.70;62.78;;;;;;;;;;5121920;28;20036;-65
2021/11/11 00:54:01;;;;;;;133.20;60.20;;;;;;;;;;5102078;28;20062;-66
2021/11/11 00:56:27;;;;;;;143.82;60.58;;;;;;;;;;5124648;28;20290;-66
2021/11/11 00:58:54;;;;;;;141.07;60.33;;;;;;;;;;5125342;28;20046;-66
2021/11/11 01:01:20;;;;;;;124.30;55.92;;;;;;;;;;5123788;28;20043;-66
2021/11/11 01:03:48;;;;;;;112.38;53.13;;;;;;;;;;5108078;28;20046;-66
2021/11/11 01:06:16;;;;;;;112.68;51.72;;;;;;;;;;5100194;28;20043;-66
2021/11/11 01:08:42;;;;;;;119.85;52.15;;;;;;;;;;5095676;28;20044;-66
2021/11/11 01:11:08;;;;;;;120.63;51.03;;;;;;;;;;5119311;28;20071;-66
2021/11/11 01:13:35;;;;;;;116.97;51.22;;;;;;;;;;5124821;28;20065;-66
2021/11/11 01:16:02;;;;;;;104.18;47.75;;;;;;;;;;5124670;28;20047;-66
2021/11/11 01:18:28;;;;;;;101.25;47.50;;;;;;;;;;5125285;28;20043;-66
2021/11/11 01:20:54;;;;;;;114.40;47.63;;;;;;;;;;5103943;28;20066;-66
2021/11/11 01:23:20;;;;;;;99.15;47.35;;;;;;;;;;5092310;28;20521;-66
2021/11/11 01:25:46;;;;;;;101.07;44.78;;;;;;;;;;5106235;28;20047;-66
2021/11/11 01:28:13;;;;;;;92.00;49.47;;;;;;;;;;5124719;28;20047;-66
2021/11/11 01:30:41;;;;;;;87.65;44.90;;;;;;;;;;5102484;28;20047;-66
2021/11/11 01:33:08;;;;;;;96.97;44.33;;;;;;;;;;5092417;28;20060;-66
2021/11/11 01:35:34;;;;;;;96.82;42.58;;;;;;;;;;5124838;28;20036;-66
2021/11/11 01:38:00;;;;;;;94.70;43.83;;;;;;;;;;5101738;28;20070;-66
2021/11/11 01:40:26;;;;;;;90.07;42.22;;;;;;;;;;5118068;28;20086;-66
2021/11/11 01:42:56;;;;;;;81.10;39.47;;;;;;;;;;5106550;28;20050;-66
2021/11/11 01:45:27;;;;;;;87.00;40.90;;;;;;;;;;5124267;28;20142;-66
2021/11/11 01:47:53;;;;;;;91.03;40.13;;;;;;;;;;5106463;28;20126;-66
2021/11/11 01:50:20;;;;;;;83.65;39.72;;;;;;;;;;5090050;28;20059;-66
2021/11/11 01:52:46;;;;;;;79.00;38.90;;;;;;;;;;5124749;28;20043;-66
2021/11/11 01:55:13;;;;;;;74.70;39.33;;;;;;;;;;5124171;28;20043;-66
2021/11/11 01:57:39;;;;;;;82.45;39.05;;;;;;;;;;5124526;28;20040;-66
2021/11/11 02:00:08;;;;;;;73.63;38.47;;;;;;;;;;5119226;28;20471;-66
2021/11/11 02:02:34;;;;;;;76.25;36.75;;;;;;;;;;5105881;28;20048;-66
2021/11/11 02:05:00;;;;;;;76.75;36.85;;;;;;;;;;5126685;28;20095;-66
2021/11/11 02:07:26;;;;;;;75.05;36.60;;;;;;;;;;5118734;28;20056;-66
2021/11/11 02:09:52;;;;;;;73.22;35.63;;;;;;;;;;5116156;28;20062;-66
2021/11/11 02:12:18;;;;;;;71.50;35.30;;;;;;;;;;5114053;28;20096;-67
2021/11/11 02:14:44;;;;;;;72.35;36.03;;;;;;;;;;5125767;28;20071;-66
2021/11/11 02:17:11;;;;;;;72.45;32.33;;;;;;;;;;5110029;28;20048;-66
2021/11/11 02:19:37;;;;;;;74.47;34.40;;;;;;;;;;5101951;28;20051;-66
2021/11/11 02:22:04;;;;;;;73.47;36.00;;;;;;;;;;5110126;28;20117;-66
2021/11/11 02:24:33;;;;;;;70.55;33.55;;;;;;;;;;5127461;28;20044;-66
2021/11/11 02:26:59;;;;;;;70.43;34.28;;;;;;;;;;5107055;28;20103;-66
2021/11/11 02:29:26;;;;;;;74.70;35.30;;;;;;;;;;5115058;28;20321;-66
2021/11/11 02:31:52;;;;;;;82.55;36.70;;;;;;;;;;5109606;28;20058;-66
2021/11/11 02:34:19;;;;;;;73.35;33.08;;;;;;;;;;5128151;28;20126;-66
2021/11/11 02:36:59;;;;;;;81.07;35.70;;;;;;;;;;5106008;28;20072;-66
2021/11/11 02:39:29;;;;;;;75.47;35.03;;;;;;;;;;5092193;28;20048;-66
2021/11/11 02:41:55;;;;;;;70.78;35.05;;;;;;;;;;5127096;28;20044;-66
2021/11/11 02:44:21;;;;;;;78.80;35.45;;;;;;;;;;5108860;28;20059;-66
2021/11/11 02:46:48;;;;;;;66.28;33.53;;;;;;;;;;5107959;28;20063;-66
2021/11/11 02:49:14;;;;;;;74.95;35.47;;;;;;;;;;5120000;28;20063;-66
2021/11/11 02:51:40;;;;;;;74.38;37.90;;;;;;;;;;5104326;28;20047;-66
2021/11/11 02:54:07;;;;;;;82.93;36.67;;;;;;;;;;5109499;28;20043;-66
2021/11/11 02:56:33;;;;;;;79.57;36.78;;;;;;;;;;5126945;28;20047;-66
2021/11/11 02:58:59;;;;;;;88.03;37.10;;;;;;;;;;5126959;28;20103;-66
2021/11/11 03:01:25;;;;;;;94.38;39.38;;;;;;;;;;5109058;28;20055;-67
2021/11/11 03:03:51;;;;;;;95.03;40.50;;;;;;;;;;5127085;28;20039;-66
2021/11/11 03:06:17;;;;;;;85.55;40.38;;;;;;;;;;5127620;28;20052;-66
2021/11/11 03:08:44;;;;;;;86.20;39.35;;;;;;;;;;5125297;28;20062;-66
2021/11/11 03:11:10;;;;;;;85.88;38.45;;;;;;;;;;5126811;28;20058;-66
2021/11/11 03:13:36;;;;;;;94.95;40.42;;;;;;;;;;5108938;28;20062;-66
2021/11/11 03:16:02;;;;;;;86.93;40.45;;;;;;;;;;5107180;28;20040;-66
2021/11/11 03:18:28;;;;;;;106.68;41.45;;;;;;;;;;5100223;28;20051;-66
2021/11/11 03:20:55;;;;;;;84.60;38.85;;;;;;;;;;5126985;28;20036;-66
2021/11/11 03:23:21;;;;;;;89.85;38.70;;;;;;;;;;5127407;28;20047;-66
2021/11/11 03:25:47;;;;;;;96.43;39.08;;;;;;;;;;5105845;28;20047;-66
2021/11/11 03:28:13;;;;;;;92.55;40.28;;;;;;;;;;5095107;28;20056;-66
2021/11/11 03:30:39;;;;;;;106.53;43.47;;;;;;;;;;5114648;28;20040;-66
2021/11/11 03:33:06;;;;;;;104.72;42.50;;;;;;;;;;5118565;28;20036;-66
2021/11/11 03:35:33;;;;;;;106.22;43.47;;;;;;;;;;5126533;28;20472;-66
2021/11/11 03:38:01;;;;;;;86.68;40.42;;;;;;;;;;5096474;28;20039;-66
2021/11/11 03:40:32;;;;;;;93.95;40.92;;;;;;;;;;5125669;28;20039;-65
2021/11/11 03:42:58;;;;;;;99.55;41.20;;;;;;;;;;5107868;28;20139;-66
2021/11/11 03:45:25;;;;;;;105.37;43.33;;;;;;;;;;5104201;28;20052;-66
2021/11/11 03:47:52;;;;;;;102.33;41.53;;;;;;;;;;5102065;28;20048;-66
2021/11/11 03:50:19;;;;;;;103.53;42.85;;;;;;;;;;5126396;28;20286;-66
2021/11/11 03:52:45;;;;;;;98.40;40.80;;;;;;;;;;5126990;28;20061;-66
2021/11/11 03:55:12;;;;;;;85.80;41.58;;;;;;;;;;5125535;28;20069;-66
2021/11/11 03:57:39;;;;;;;88.57;42.60;;;;;;;;;;5103458;28;20051;-66
2021/11/11 04:00:06;;;;;;;80.25;39.63;;;;;;;;;;5126419;28;20058;-66
2021/11/11 04:02:33;;;;;;;90.82;39.92;;;;;;;;;;5112122;28;20036;-66
2021/11/11 04:04:59;;;;;;;79.95;40.35;;;;;;;;;;5108100;28;20047;-66
2021/11/11 04:07:25;;;;;;;91.45;38.65;;;;;;;;;;5117596;28;20071;-66
2021/11/11 04:09:51;;;;;;;99.47;40.72;;;;;;;;;;5125878;28;20047;-66
2021/11/11 04:12:17;;;;;;;92.60;42.92;;;;;;;;;;5107890;28;20046;-66
2021/11/11 04:14:43;;;;;;;89.72;40.53;;;;;;;;;;5107805;28;20626;-66
2021/11/11 04:17:09;;;;;;;93.28;40.80;;;;;;;;;;5115774;28;20401;-66
2021/11/11 04:19:35;;;;;;;86.85;40.42;;;;;;;;;;5126161;28;20079;-66
2021/11/11 04:22:03;;;;;;;104.95;43.00;;;;;;;;;;5107811;28;20075;-67
2021/11/11 04:24:29;;;;;;;;;;;;;;;;;;5125842;28;20095;-66
2021/11/11 04:27:01;;;;;;;90.10;40.10;;;;;;;;;;5111885;28;19982;-66
2021/11/11 04:29:33;;;;;;;95.43;40.50;;;;;;;;;;5123263;28;20045;-66
2021/11/11 04:32:06;;;;;;;97.18;40.80;;;;;;;;;;5117060;28;20067;-66
2021/11/11 04:34:33;;;;;;;86.07;39.55;;;;;;;;;;5100595;28;20039;-66
2021/11/11 05:03:50;;;;;;;93.43;40.50;;;;;;;;;;5106812;28;20052;-66
2021/11/11 05:06:17;;;;;;;101.75;42.72;;;;;;;;;;5106386;28;20052;-66
2021/11/11 05:08:43;;;;;;;111.22;44.15;;;;;;;;;;5124806;28;20116;-66
2021/11/11 05:11:10;;;;;;;87.80;40.28;;;;;;;;;;5106266;28;20047;-66
2021/11/11 05:13:36;;;;;;;111.72;43.10;;;;;;;;;;5125070;28;20040;-66
2021/11/11 05:16:03;;;;;;;103.90;39.97;;;;;;;;;;5124751;28;20103;-66
2021/11/11 05:18:29;;;;;;;107.05;43.22;;;;;;;;;;5124692;28;20067;-66
2021/11/11 05:20:55;;;;;;;100.90;40.97;;;;;;;;;;5089342;28;20043;-66
2021/11/11 05:23:22;;;;;;;98.53;43.90;;;;;;;;;;5106692;28;20050;-66
2021/11/11 05:25:49;;;;;;;97.57;43.35;;;;;;;;;;5103972;28;20051;-66
2021/11/11 05:28:15;;;;;;;96.27;38.00;;;;;;;;;;5110813;28;20110;-66
2021/11/11 05:30:41;;;;;;;98.30;41.45;;;;;;;;;;5111604;28;20294;-66
2021/11/11 05:33:07;;;;;;;102.10;44.35;;;;;;;;;;5123026;28;20063;-66
2021/11/11 05:35:34;;;;;;;108.63;43.75;;;;;;;;;;5122317;28;20042;-66
2021/11/11 05:38:00;;;;;;;113.00;46.53;;;;;;;;;;5122987;28;20035;-66
2021/11/11 05:40:26;;;;;;;114.28;47.45;;;;;;;;;;5128854;28;20051;-66
2021/11/11 05:42:52;;;;;;;98.82;42.13;;;;;;;;;;5110592;28;20051;-66
2021/11/11 05:45:19;;;;;;;116.55;45.78;;;;;;;;;;5107066;28;20059;-66
2021/11/11 05:47:45;;;;;;;109.88;46.47;;;;;;;;;;5100676;28;20047;-66
2021/11/11 05:50:12;;;;;;;115.00;49.00;;;;;;;;;;5128506;28;20044;-66
2021/11/11 05:52:39;;;;;;;99.13;43.10;;;;;;;;;;5110761;28;20076;-66
2021/11/11 05:55:06;;;;;;;100.82;46.20;;;;;;;;;;5128185;28;20102;-66
2021/11/11 05:57:32;;;;;;;111.10;46.95;;;;;;;;;;5116764;28;20043;-66
2021/11/11 05:59:58;;;;;;;105.93;45.53;;;;;;;;;;5128621;28;20089;-66
2021/11/11 06:02:26;;;;;;;105.32;45.55;;;;;;;;;;5128354;28;20043;-66
2021/11/11 06:04:52;;;;;;;106.65;49.00;;;;;;;;;;5126636;28;20093;-66
2021/11/11 06:07:18;;;;;;;108.38;48.10;;;;;;;;;;5107214;28;20048;-66
2021/11/11 06:09:44;;;;;;;114.05;48.05;;;;;;;;;;5127814;28;20489;-66
2021/11/11 06:12:10;;;;;;;111.38;50.35;;;;;;;;;;5109085;28;20077;-66
2021/11/11 06:14:36;;;;;;;108.88;49.13;;;;;;;;;;5128414;28;20039;-66
2021/11/11 06:17:06;;;;;;;105.50;48.47;;;;;;;;;;5125798;28;20051;-66
2021/11/11 06:19:34;;;;;;;115.47;50.88;;;9.50;99.90;;;;;;5113765;28;20050;-66
2021/11/11 06:22:00;;;;;;;130.90;53.78;;;9.30;99.90;;;;;;5128081;28;20098;-66
2021/11/11 06:24:26;;;;;;;116.38;52.45;;;9.40;99.90;;;;;;5109476;28;20077;-66
2021/11/11 06:26:51;;;;;;;112.13;52.55;;;9.50;99.90;;;;;;5121420;28;20047;-66
2021/11/11 06:29:17;;;;;;;129.95;55.50;;;9.20;99.90;;;;;;5115203;28;20066;-66
2021/11/11 06:31:43;;;;;;;125.72;55.58;;;9.50;99.90;;;;;;5124476;28;20043;-66
2021/11/11 06:34:09;;;;;;;122.38;57.83;;;9.20;99.90;;;;;;5127779;28;20036;-66
2021/11/11 06:36:36;;;;;;;117.30;56.08;;;9.20;99.90;;;;;;5123055;28;20061;-66
2021/11/11 06:39:03;;;;;;;117.07;57.67;;;9.50;99.90;;;;;;5128011;28;20151;-66
2021/11/11 06:41:29;;;;;;;126.40;63.15;;;9.20;99.90;;;;;;5127689;28;20035;-66
2021/11/11 06:43:56;;;;;;;123.25;57.42;;;;;;;;;;5109412;28;20161;-66
2021/11/11 06:46:22;;;;;;;119.43;56.30;;;9.20;99.90;;;;;;5118916;28;20421;-66
2021/11/11 06:48:47;;;;;;;124.38;59.55;;;9.20;99.90;;;;;;5116672;28;20043;-66
2021/11/11 06:51:13;;;;;;;131.63;63.10;;;9.80;99.90;;;;;;5117642;28;20044;-66
2021/11/11 06:53:39;;;;;;;134.40;63.08;;;9.60;99.90;;;;;;5109289;28;20118;-66
2021/11/11 06:56:04;;;;;;;132.50;64.45;;;9.50;99.90;;;;;;5102960;28;20044;-66
2021/11/11 06:58:30;;;;;;;127.35;68.30;;;9.40;99.90;;;;;;5112404;28;20050;-67
2021/11/11 07:00:58;;;;;;;132.85;68.53;;;9.50;99.90;;;;;;5120792;28;20040;-66
2021/11/11 07:03:24;;;;;;;148.13;71.07;;;9.30;99.90;;;;;;5115549;28;20121;-66
2021/11/11 07:05:50;;;;;;;140.05;71.82;;;9.30;99.90;;;;;;5122060;28;20070;-66
2021/11/11 07:08:16;;;;;;;136.43;70.38;;;9.30;99.90;;;;;;5122770;28;20052;-66
2021/11/11 07:10:45;;;;;;;145.90;74.40;;;9.40;99.90;;;;;;5121968;28;20043;-66
2021/11/11 07:13:11;;;;;;;159.65;76.63;;;9.40;99.90;;;;;;5123693;28;20039;-66
2021/11/11 07:15:38;;;;;;;145.15;76.93;;;9.40;99.90;;;;;;5124299;28;20091;-66
2021/11/11 07:18:05;;;;;;;144.82;75.43;;;9.70;99.90;;;;;;5124727;28;20407;-66
2021/11/11 07:20:31;;;;;;;143.02;78.10;;;9.50;99.90;;;;;;5109939;28;20036;-66
2021/11/11 07:23:02;;;;;;;153.50;81.15;;;9.40;99.90;;;;;;5114510;28;20040;-66
2021/11/11 07:25:29;;;;;;;152.85;77.93;;;9.60;99.90;;;;;;5088957;28;20104;-66
2021/11/11 07:27:55;;;;;;;154.43;77.60;;;9.40;99.90;;;;;;5100970;28;20498;-66
2021/11/11 07:30:22;;;;;;;158.10;85.63;;;9.80;99.90;;;;;;5114658;28;20580;-66
2021/11/11 07:32:48;;;;;;;159.13;83.65;;;9.40;99.90;;;;;;5114617;28;20044;-66
2021/11/11 07:35:15;;;;;;;163.68;84.90;;;9.40;99.90;;;;;;5095968;28;20043;-66
2021/11/11 07:37:45;;;;;;;146.73;78.55;;;9.50;99.90;;;;;;5100513;28;20050;-66
2021/11/11 07:40:13;;;;;;;184.05;87.68;;;9.80;99.90;;;;;;5111708;28;20055;-66
2021/11/11 07:42:40;;;;;;;165.82;85.30;;;9.50;99.90;;;;;;5092632;28;20059;-66
2021/11/11 07:45:07;;;;;;;167.90;85.87;;;9.70;99.90;;;;;;5098044;28;20058;-66
2021/11/11 07:47:33;;;;;;;157.50;80.68;;;9.40;99.90;;;;;;5123026;28;20085;-66
2021/11/11 07:50:02;;;;;;;163.73;84.97;;;9.60;99.90;;;;;;5119971;28;20514;-66
2021/11/11 07:52:28;;;;;;;168.88;89.93;;;9.30;99.90;;;;;;5076331;28;20040;-66
2021/11/11 07:54:57;;;;;;;156.15;78.22;;;9.60;99.90;;;;;;5112800;28;20741;-66
2021/11/11 07:57:26;;;;;;;163.30;83.25;;;9.50;99.90;;;;;;5119483;28;20065;-66
2021/11/11 07:59:55;;;;;;;167.02;86.78;;;9.60;99.90;;;;;;5116089;28;20067;-66
2021/11/11 08:02:22;;;;;;;157.60;82.85;;;9.90;99.90;;;;;;5105897;28;20046;-66
2021/11/11 08:04:48;;;;;;;179.57;85.65;;;9.50;99.90;;;;;;5095936;28;20052;-66
2021/11/11 08:07:17;;;;;;;151.02;81.55;;;9.90;99.90;;;;;;5116119;28;20103;-67
2021/11/11 08:09:44;;;;;;;171.80;84.80;;;9.60;99.90;;;;;;5094049;28;20064;-66
2021/11/11 08:12:10;;;;;;;130.82;75.68;;;9.60;99.90;;;;;;5096535;28;20048;-66
2021/11/11 08:14:36;;;;;;;153.90;80.05;;;9.50;99.90;;;;;;5111944;28;20043;-66
2021/11/11 08:17:01;;;;;;;144.98;80.32;;;9.50;99.90;;;;;;5116923;28;20126;-66
2021/11/11 08:19:27;;;;;;;142.45;80.40;;;9.40;99.90;;;;;;5118940;28;20120;-66
2021/11/11 08:21:53;;;;;;;147.35;74.85;;;9.80;99.90;;;;;;5093947;28;20110;-66
2021/11/11 08:24:19;;;;;;;135.48;73.22;;;9.80;99.90;;;;;;5115569;28;20105;-66
2021/11/11 08:26:45;;;;;;;142.57;73.72;;;9.80;99.90;;;;;;5097278;28;20051;-66
2021/11/11 08:29:10;;;;;;;128.70;70.40;;;9.90;99.90;;;;;;5113888;28;20051;-66
2021/11/11 08:31:36;;;;;;;121.20;67.93;;;9.70;99.90;;;;;;5094451;28;20063;-67
2021/11/11 08:34:03;;;;;;;119.00;67.95;;;;;;;;;;5112009;28;20051;-66
2021/11/11 08:36:30;;;;;;;117.10;66.37;;;9.70;99.90;;;;;;5118089;28;20046;-66
2021/11/11 08:39:00;;;;;;;122.13;69.77;;;9.70;99.90;;;;;;5114726;28;20051;-66
2021/11/11 08:41:27;;;;;;;116.13;65.82;;;9.70;99.90;;;;;;5089448;28;20324;-66
2021/11/11 08:43:57;;;;;;;122.63;64.53;;;10.00;99.90;;;;;;5094264;28;20039;-67
2021/11/11 08:46:23;;;;;;;142.10;68.18;;;9.70;99.90;;;;;;5094115;28;20135;-67
2021/11/11 08:48:49;;;;;;;123.03;64.38;;;9.80;99.90;;;;;;5093460;28;20081;-67
2021/11/11 08:51:15;;;;;;;122.45;63.35;;;9.80;99.90;;;;;;5113575;28;20044;-67
2021/11/11 08:53:41;;;;;;;124.38;65.93;;;9.60;99.90;;;;;;5095355;28;20130;-67
2021/11/11 08:56:07;;;;;;;118.28;58.13;;;9.70;99.90;;;;;;5112034;28;20412;-67
2021/11/11 08:58:36;;;;;;;117.25;59.53;;;9.80;99.90;;;;;;5119242;28;20039;-66
2021/11/11 09:01:05;;;;;;;122.10;59.75;;;10.00;99.90;;;;;;5118536;28;20037;-66
2021/11/11 09:03:32;;;;;;;123.85;62.92;;;9.70;99.90;;;;;;5113055;28;20077;-66
2021/11/11 09:05:58;;;;;;;123.90;61.60;;;10.00;99.90;;;;;;5098304;28;20479;-66
2021/11/11 09:08:24;;;;;;;134.05;62.28;;;9.80;99.90;;;;;;5094911;28;20293;-66
2021/11/11 09:10:52;;;;;;;123.18;61.40;;;9.90;99.90;;;;;;5095824;28;20042;-67
2021/11/11 09:13:18;;;;;;;101.80;48.15;;;10.10;99.90;;;;;;5112914;28;20124;-66
2021/11/11 09:15:43;;;;;;;137.60;61.28;;;9.90;99.90;;;;;;5115191;28;20039;-66
2021/11/11 09:18:09;;;;;;;142.68;62.65;;;9.80;99.90;;;;;;5098417;28;20046;-66
2021/11/11 09:20:38;;;;;;;145.25;66.30;;;9.80;99.90;;;;;;5114850;28;20298;-67
2021/11/11 09:23:04;;;;;;;140.73;61.13;;;;;;;;;;5117864;28;20035;-66
2021/11/11 09:25:31;;;;;;;145.65;65.95;;;;;;;;;;5114807;28;20047;-67
2021/11/11 09:27:58;;;;;;;161.05;67.45;;;;;;;;;;5113910;28;20040;-66
2021/11/11 09:30:26;;;;;;;155.10;67.03;;;;;;;;;;5089836;28;20048;-66
2021/11/11 09:32:53;;;;;;;164.52;65.53;;;;;;;;;;5116444;28;20039;-66
2021/11/11 09:35:19;;;;;;;152.60;65.10;;;;;;;;;;5095985;28;20467;-66
2021/11/11 09:37:45;;;;;;;164.63;68.70;;;;;;;;;;5093369;28;20301;-66
2021/11/11 09:40:13;;;;;;;175.27;70.97;;;;;;;;;;5106539;28;20093;-66
2021/11/11 09:42:40;;;;;;;165.32;70.60;;;;;;;;;;5112027;28;20074;-65
2021/11/11 09:45:08;;;;;;;155.83;70.17;;;;;;;;;;5096132;28;20056;-64
2021/11/11 09:47:34;;;;;;;178.02;70.30;;;;;;;;;;5111047;28;20040;-63
2021/11/11 09:50:00;;;;;;;153.88;65.45;;;;;;;;;;5095351;28;20123;-63
2021/11/11 09:52:26;;;;;;;162.48;65.18;;;;;;;;;;5089404;28;20052;-64
2021/11/11 10:00:26;;;;;;;156.38;62.55;;;;;;;;;;5113086;28;21088;-62
2021/11/11 10:02:53;;;;;;;156.32;62.72;;;;;;;;;;5113819;28;20039;-62
2021/11/11 10:05:19;;;;;;;168.67;68.87;;;;;;;;;;5112767;28;20048;-60
2021/11/11 10:07:45;;;;;;;165.57;67.25;;;;;;;;;;5113583;28;20081;-60
2021/11/11 10:10:27;;;;;;;181.40;71.53;;;;;;;;;;5101921;28;20059;-60
2021/11/11 10:13:12;;;;;;;190.95;72.05;;;;;;;;;;5109333;28;20047;-60
2021/11/11 10:16:17;;;;;;;170.82;68.43;;;;;;;;;;5096339;28;20051;-68
2021/11/11 10:18:45;;;;;;;171.13;68.88;;;;;;;;;;5019515;28;20119;-68
2021/11/11 10:21:21;;;;;;;165.60;70.10;;;;;;;;;;5015263;28;20064;-70
2021/11/11 10:23:48;;;;;;;174.02;67.53;;;;;;;;;;5021555;28;20061;-70
2021/11/11 10:26:29;;;;;;;168.00;64.95;;;;;;;;;;5013010;28;20056;-71
2021/11/11 10:28:55;;;;;;;146.10;59.85;;;;;;;;;;5034429;28;20041;-63
2021/11/11 10:31:22;;;;;;;156.80;61.60;;;;;;;;;;5024550;28;20091;-64
2021/11/11 10:34:06;;;;;;;158.30;62.70;;;;;;;;;;5023092;28;20056;-62
2021/11/11 10:36:41;;;;;;;169.05;66.20;;;;;;;;;;5035839;28;20046;-64
2021/11/11 10:39:18;;;;;;;138.57;56.85;;;;;;;;;;5038153;28;20057;-64
2021/11/11 10:41:44;;;;;;;123.70;51.25;;;;;;;;;;5031085;28;20072;-62
2021/11/11 10:44:16;;;;;;;148.02;63.38;;;;;;;;;;5023772;28;20888;-64
2021/11/11 10:46:55;;;;;;;136.27;57.33;;;;;;;;;;5033566;28;20053;-61
2021/11/11 10:49:30;;;;;;;128.35;56.50;;;;;;;;;;5069038;28;20174;-61
2021/11/11 10:51:57;;;;;;;128.60;57.65;;;;;;;;;;5123854;28;20813;-61
2021/11/11 10:54:23;;;;;;;126.43;57.25;;;;;;;;;;5098002;28;20064;-62
2021/11/11 10:56:50;;;;;;;138.57;59.80;;;;;;;;;;5117133;28;20039;-64
2021/11/11 10:59:19;;;;;;;141.90;60.37;;;;;;;;;;5097560;28;20039;-64
2021/11/11 11:01:45;;;;;;;129.00;54.35;;;;;;;;;;5113800;28;20282;-64
2021/11/11 11:04:28;;;;;;;121.18;54.63;;;;;;;;;;5101282;28;20051;-67
2021/11/11 11:07:16;;;;;;;120.65;54.58;;;;;;;;;;5093171;28;20043;-69
2021/11/11 11:09:42;;;;;;;109.43;51.67;;;;;;;;;;5118598;28;20054;-70
2021/11/11 11:12:28;;;;;;;112.80;50.60;;;;;;;;;;5106162;28;20052;-69
2021/11/11 11:14:54;;;;;;;103.45;50.25;;;;;;;;;;5103920;28;20107;-65
2021/11/11 11:17:20;;;;;;;110.05;48.55;;;;;;;;;;5121617;28;20112;-64
2021/11/11 11:19:47;;;;;;;102.03;48.55;;;;;;;;;;5118251;28;20040;-65
2021/11/11 11:22:21;;;;;;;109.00;49.90;;;;;;;;;;5090524;28;20085;-63
2021/11/11 11:24:47;;;;;;;76.88;42.92;;;;;;;;;;5096560;28;20473;-63
2021/11/11 11:27:14;;;;;;;88.78;44.28;;;;;;;;;;5112269;28;20052;-63
2021/11/11 11:30:09;;;;;;;77.85;39.53;;;;;;;;;;5119144;28;20039;-63
2021/11/11 11:32:30;;;;;;;76.88;39.53;;;;;;;;;;5112630;28;20047;-63
2021/11/11 11:34:59;;;;;;;73.40;40.25;;;;;;;;;;5092643;28;20096;-64
2021/11/11 11:37:26;;;;;;;87.57;42.75;;;;;;;;;;5111928;28;20044;-64
2021/11/11 11:39:53;;;;;;;75.18;39.03;;;;;;;;;;5093468;28;20104;-64
2021/11/11 11:42:23;;;;;;;76.20;39.50;;;;;;;;;;5115791;28;20069;-69
2021/11/11 11:44:57;;;;;;;78.10;40.42;;;;;;;;;;5099850;28;20410;-69
2021/11/11 11:47:42;;;;;;;73.82;39.17;;;;;;;;;;5094291;28;20203;-69
2021/11/11 11:50:09;;;;;;;78.05;40.40;;;;;;;;;;5114282;28;20043;-69
2021/11/11 11:52:36;;;;;;;74.43;40.72;;;;;;;;;;5096290;28;20112;-69
2021/11/11 12:00:04;;;;;;;79.80;37.75;;;;;;;;;;5117025;28;20048;-69
2021/11/11 12:02:44;;;;;;;83.30;41.42;;;;;;;;;;5101179;28;20043;-75
2021/11/11 12:07:53;;;;;;;74.20;39.75;;;;;;;;;;5120477;28;20048;-64
2021/11/11 12:10:31;;;;;;;70.50;37.33;;;;;;;;;;5118673;28;20043;-64
2021/11/11 12:15:48;;;;;;;72.07;38.88;;;;;;;;;;5108773;28;20044;-63
2021/11/11 12:38:34;;;;;;;67.80;35.72;;;;;;;;;;5042665;28;20299;-65
2021/11/11 12:41:07;;;;;;;51.65;30.00;;;;;;;;;;5058868;28;20566;-64
2021/11/11 12:43:33;;;;;;;49.60;29.77;;;;;;;;;;5059834;28;20048;-64
2021/11/11 12:46:00;;;;;;;51.38;29.42;;;;;;;;;;5042315;28;20084;-65
2021/11/11 12:48:26;;;;;;;49.00;28.90;;;;;;;;;;5044457;28;20061;-65
2021/11/11 12:51:03;;;;;;;55.42;30.52;;;;;;;;;;5044287;28;20055;-64
2021/11/11 12:53:34;;;;;;;49.50;28.77;;;;;;;;;;5069537;28;20044;-63
2021/11/11 12:56:06;;;;;;;51.00;28.48;;;;;;;;;;5055591;28;20045;-64
2021/11/11 12:58:32;;;;;;;48.47;27.08;;;;;;;;;;5059059;28;20176;-63
2021/11/11 13:00:59;;;;;;;51.88;28.55;;;;;;;;;;5060124;28;20649;-62
2021/11/11 13:03:44;;;;;;;43.03;27.50;;;;;;;;;;5066333;28;20465;-61
2021/11/11 13:06:10;;;;;;;46.83;26.77;;;;;;;;;;5056574;28;20580;-61
2021/11/11 13:08:48;;;;;;;42.13;25.52;;;;;;;;;;5060895;28;20049;-70
2021/11/11 13:11:15;;;;;;;;;;;;;;;;;;5076109;28;20047;-70
2021/11/11 13:14:01;;;;;;;44.47;26.77;;;;;;;;;;5115145;28;19923;-69
2021/11/11 13:16:27;;;;;;;43.80;27.80;;;;;;;;;;5115943;28;20075;-68
2021/11/11 13:18:55;;;;;;;44.13;26.25;;;;;;;;;;5073710;28;20538;-71
2021/11/11 13:21:24;;;;;;;;;;;;;;;;;;5097335;28;20114;-68
2021/11/11 13:24:09;;;;;;;46.10;26.20;;;;;;;;;;5092072;28;19924;-70
2021/11/11 13:54:47;;;;;;;34.83;22.35;;;;;;;;;;5096397;28;20048;-67
2021/11/11 16:26:48;;;;;;;161.55;67.47;;;;;;;;;;5093866;28;20047;-70
2021/11/11 16:29:14;;;;;;;158.20;65.57;;;;;;;;;;5096486;28;20093;-70
2021/11/11 16:31:40;;;;;;;164.25;65.93;;;;;;;;;;5106456;28;20067;-70
2021/11/11 16:34:06;;;;;;;150.15;66.53;;;;;;;;;;5115871;28;20134;-71
2021/11/11 16:36:33;;;;;;;154.13;65.78;;;;;;;;;;5089002;28;20072;-70
2021/11/11 16:39:00;;;;;;;147.98;62.05;;;;;;;;;;5113241;28;20399;-70
2021/11/11 16:41:26;;;;;;;142.95;60.83;;;;;;;;;;5116839;28;20047;-70
2021/11/11 16:43:52;;;;;;;155.18;64.93;;;;;;;;;;5091208;28;20110;-70
2021/11/11 16:46:18;;;;;;;152.63;63.20;;;;;;;;;;5103908;28;20095;-70
2021/11/11 16:48:45;;;;;;;136.27;59.72;;;;;;;;;;5094838;28;20051;-68
2021/11/11 16:51:12;;;;;;;126.55;58.72;;;;;;;;;;5114144;28;20457;-69
2021/11/11 16:53:39;;;;;;;;;;;;;;;;;;5117199;28;20054;-69
2021/11/11 16:56:06;;;;;;;129.20;59.42;;;;;;;;;;5115532;28;20412;-69
2021/11/11 16:58:32;;;;;;;129.10;59.63;;;;;;;;;;5095498;28;20118;-68
2021/11/11 17:00:58;;;;;;;129.60;58.63;;;;;;;;;;5120804;28;20099;-68
2021/11/11 17:03:26;;;;;;;122.88;57.03;;;;;;;;;;5114777;28;20049;-63
2021/11/11 17:05:53;;;;;;;123.07;57.42;;;;;;;;;;5098415;28;20079;-65
2021/11/11 17:08:19;;;;;;;126.78;59.05;;;;;;;;;;5096922;28;20043;-67
2021/11/11 17:10:46;;;;;;;127.72;58.40;;;;;;;;;;5111235;28;20043;-67
2021/11/11 17:13:13;;;;;;;121.78;59.95;;;;;;;;;;5097108;28;20039;-68
2021/11/11 17:15:40;;;;;;;114.40;55.53;;;;;;;;;;5116865;28;20149;-70
2021/11/11 17:18:08;;;;;;;111.50;53.92;;;;;;;;;;5098589;28;20042;-69
2021/11/11 17:20:34;;;;;;;119.45;57.05;;;;;;;;;;5112249;28;20436;-66
2021/11/11 17:23:03;;;;;;;120.63;57.27;;;;;;;;;;5091503;28;20104;-66
2021/11/11 17:28:15;;;;;;;123.22;58.72;;;;;;;;;;5092253;28;20040;-67
2021/11/11 17:30:45;;;;;;;122.38;56.85;;;;;;;;;;5092976;28;20083;-67
2021/11/11 17:33:12;;;;;;;130.65;58.13;;;;;;;;;;5115800;28;20108;-68
2021/11/11 17:35:38;;;;;;;124.80;57.33;;;;;;;;;;5111686;28;20127;-67
2021/11/11 17:38:05;;;;;;;133.32;60.35;;;;;;;;;;5088541;28;20305;-67
2021/11/11 17:40:32;;;;;;;112.25;53.85;;;;;;;;;;5112931;28;20197;-67
2021/11/11 17:42:58;;;;;;;132.88;58.50;;;;;;;;;;5090254;28;20547;-67
2021/11/11 17:45:38;;;;;;;123.72;59.38;;;;;;;;;;5112191;28;20084;-66
2021/11/11 17:48:05;;;;;;;133.73;62.30;;;;;;;;;;5092158;28;20055;-66
2021/11/11 17:50:35;;;;;;;130.00;61.65;;;;;;;;;;5112795;28;20040;-66
2021/11/11 17:53:12;;;;;;;121.72;58.70;;;;;;;;;;5116075;28;20085;-66